sensor_id;sensor_type;location;lat;lon;timestamp;temperature;humidity
37281;DHT22;23169;41.804;12.596;2023-05-14T04:13:14;14.20;1.00
37281;DHT22;23169;41.804;12.596;2023-05-14T04:15:46;14.30;1.00
37281;DHT22;23169;41.804;12.596;2023-05-14T04:18:15;14.20;1.00
37281;DHT22;23169;41.804;12.596;2023-05-14T04:20:44;14.20;1.00
37281;DHT22;23169;41.804;12.596;2023-05-14T04:23:14;14.20;1.00
37281;DHT22;23169;41.804;12.596;2023-05-14T04:25:43;16.40;99.90
37281;DHT22;23169;41.804;12.596;2023-05-14T04:28:12;14.30;99.90
37281;DHT22;23169;41.804;12.596;2023-05-14T04:30:40;14.30;99.90
37281;DHT22;23169;41.804;12.596;2023-05-14T04:33:09;14.30;99.90
37281;DHT22;23169;41.804;12.596;2023-05-14T04:35:37;14.30;99.90
37281;DHT22;23169;41.804;12.596;2023-05-14T04:38:06;14.40;99.90
37281;DHT22;23169;41.804;12.596;2023-05-14T04:40:36;14.40;99.90
37281;DHT22;23169;41.804;12.596;2023-05-14T04:43:05;14.40;99.90
37281;DHT22;23169;41.804;12.596;2023-05-14T04:45:33;14.40;99.90
37281;DHT22;23169;41.804;12.596;2023-05-14T04:48:03;14.40;99.90
37281;DHT22;23169;41.804;12.596;2023-05-14T04:50:33;14.40;99.90
37281;DHT22;23169;41.804;12.596;2023-05-14T04:53:02;14.50;99.90
37281;DHT22;23169;41.804;12.596;2023-05-14T04:55:31;14.50;99.90
37281;DHT22;23169;41.804;12.596;2023-05-14T04:58:03;14.50;99.90
37281;DHT22;23169;41.804;12.596;2023-05-14T05:00:33;14.50;99.90
37281;DHT22;23169;41.804;12.596;2023-05-14T05:03:01;14.50;99.90
37281;DHT22;23169;41.804;12.596;2023-05-14T05:05:30;14.50;99.90
37281;DHT22;23169;41.804;12.596;2023-05-14T05:08:00;14.50;99.90
37281;DHT22;23169;41.804;12.596;2023-05-14T05:10:29;14.50;99.90
37281;DHT22;23169;41.804;12.596;2023-05-14T05:12:58;14.50;99.90
37281;DHT22;23169;41.804;12.596;2023-05-14T05:15:26;14.50;99.90
37281;DHT22;23169;41.804;12.596;2023-05-14T05:17:55;14.60;99.90
37281;DHT22;23169;41.804;12.596;2023-05-14T05:20:23;14.60;99.90
37281;DHT22;23169;41.804;12.596;2023-05-14T05:22:52;14.70;99.90
37281;DHT22;23169;41.804;12.596;2023-05-14T05:25:21;14.70;99.90
37281;DHT22;23169;41.804;12.596;2023-05-14T05:27:52;14.70;99.90
37281;DHT22;23169;41.804;12.596;2023-05-14T05:30:21;14.70;99.90
37281;DHT22;23169;41.804;12.596;2023-05-14T05:32:49;14.80;99.90
37281;DHT22;23169;41.804;12.596;2023-05-14T05:35:21;14.80;99.90
37281;DHT22;23169;41.804;12.596;2023-05-14T05:37:50;14.90;99.90
37281;DHT22;23169;41.804;12.596;2023-05-14T05:40:18;14.90;99.90
37281;DHT22;23169;41.804;12.596;2023-05-14T05:42:50;15.00;99.90
37281;DHT22;23169;41.804;12.596;2023-05-14T05:45:19;15.00;99.90
37281;DHT22;23169;41.804;12.596;2023-05-14T05:47:47;15.10;99.90
37281;DHT22;23169;41.804;12.596;2023-05-14T05:50:16;14.90;99.90
37281;DHT22;23169;41.804;12.596;2023-05-14T05:52:45;15.20;99.90
37281;DHT22;23169;41.804;12.596;2023-05-14T05:55:13;15.20;99.90
37281;DHT22;23169;41.804;12.596;2023-05-14T05:57:55;15.30;99.90
37281;DHT22;23169;41.804;12.596;2023-05-14T06:00:24;15.30;99.90
37281;DHT22;23169;41.804;12.596;2023-05-14T06:02:52;15.30;99.90
37281;DHT22;23169;41.804;12.596;2023-05-14T06:05:21;15.30;99.90
37281;DHT22;23169;41.804;12.596;2023-05-14T06:07:50;15.30;99.90
37281;DHT22;23169;41.804;12.596;2023-05-14T06:10:20;15.20;99.90
37281;DHT22;23169;41.804;12.596;2023-05-14T06:12:49;15.20;99.90
37281;DHT22;23169;41.804;12.596;2023-05-14T06:15:18;15.30;99.90
37281;DHT22;23169;41.804;12.596;2023-05-14T06:17:47;15.30;99.90
37281;DHT22;23169;41.804;12.596;2023-05-14T06:20:15;15.30;99.90
37281;DHT22;23169;41.804;12.596;2023-05-14T06:22:44;15.30;99.90
37281;DHT22;23169;41.804;12.596;2023-05-14T06:25:13;15.40;99.90
37281;DHT22;23169;41.804;12.596;2023-05-14T06:27:42;15.50;99.90
37281;DHT22;23169;41.804;12.596;2023-05-14T06:30:11;15.70;99.90
37281;DHT22;23169;41.804;12.596;2023-05-14T06:32:41;15.90;99.90
37281;DHT22;23169;41.804;12.596;2023-05-14T06:35:09;16.00;99.90
37281;DHT22;23169;41.804;12.596;2023-05-14T06:37:38;16.20;99.90
37281;DHT22;23169;41.804;12.596;2023-05-14T06:40:07;16.30;99.90
37281;DHT22;23169;41.804;12.596;2023-05-14T06:42:36;16.40;99.90
37281;DHT22;23169;41.804;12.596;2023-05-14T06:45:07;16.40;99.90
37281;DHT22;23169;41.804;12.596;2023-05-14T06:47:36;16.50;99.90
37281;DHT22;23169;41.804;12.596;2023-05-14T06:50:04;16.40;99.90
37281;DHT22;23169;41.804;12.596;2023-05-14T06:52:35;16.50;99.90
37281;DHT22;23169;41.804;12.596;2023-05-14T06:55:05;16.50;99.90
37281;DHT22;23169;41.804;12.596;2023-05-14T06:57:34;16.60;99.90
37281;DHT22;23169;41.804;12.596;2023-05-14T07:00:03;16.70;99.90
37281;DHT22;23169;41.804;12.596;2023-05-14T07:02:32;16.80;99.90
37281;DHT22;23169;41.804;12.596;2023-05-14T07:05:01;16.80;99.90
37281;DHT22;23169;41.804;12.596;2023-05-14T07:07:34;16.80;99.90
37281;DHT22;23169;41.804;12.596;2023-05-14T07:10:02;16.70;99.90
37281;DHT22;23169;41.804;12.596;2023-05-14T07:12:32;16.80;99.90
37281;DHT22;23169;41.804;12.596;2023-05-14T07:17:30;16.90;99.90
37281;DHT22;23169;41.804;12.596;2023-05-14T07:19:59;16.90;99.90
37281;DHT22;23169;41.804;12.596;2023-05-14T07:22:31;16.80;99.90
37281;DHT22;23169;41.804;12.596;2023-05-14T07:24:59;16.70;99.90
37281;DHT22;23169;41.804;12.596;2023-05-14T07:27:30;16.70;99.90
37281;DHT22;23169;41.804;12.596;2023-05-14T07:29:59;16.60;99.90
37281;DHT22;23169;41.804;12.596;2023-05-14T07:32:28;16.70;99.90
37281;DHT22;23169;41.804;12.596;2023-05-14T07:37:25;16.90;99.90
37281;DHT22;23169;41.804;12.596;2023-05-14T07:39:53;16.90;99.90
37281;DHT22;23169;41.804;12.596;2023-05-14T07:42:22;16.90;99.90
37281;DHT22;23169;41.804;12.596;2023-05-14T07:44:52;16.90;99.90
37281;DHT22;23169;41.804;12.596;2023-05-14T07:49:53;16.80;99.90
37281;DHT22;23169;41.804;12.596;2023-05-14T07:52:25;16.90;99.90
37281;DHT22;23169;41.804;12.596;2023-05-14T07:54:53;17.00;99.90
37281;DHT22;23169;41.804;12.596;2023-05-14T07:57:22;16.90;99.90
37281;DHT22;23169;41.804;12.596;2023-05-14T07:59:50;16.80;99.90
37281;DHT22;23169;41.804;12.596;2023-05-14T08:02:19;16.70;99.90
37281;DHT22;23169;41.804;12.596;2023-05-14T08:04:47;16.50;99.90
37281;DHT22;23169;41.804;12.596;2023-05-14T08:07:16;16.70;99.90
37281;DHT22;23169;41.804;12.596;2023-05-14T08:09:45;16.70;99.90
37281;DHT22;23169;41.804;12.596;2023-05-14T08:12:13;16.80;99.90
37281;DHT22;23169;41.804;12.596;2023-05-14T08:14:43;17.00;99.90
37281;DHT22;23169;41.804;12.596;2023-05-14T08:17:12;17.20;99.90
37281;DHT22;23169;41.804;12.596;2023-05-14T08:19:41;17.30;99.90
37281;DHT22;23169;41.804;12.596;2023-05-14T08:22:10;17.60;99.20
37281;DHT22;23169;41.804;12.596;2023-05-14T08:24:39;17.80;96.10
37281;DHT22;23169;41.804;12.596;2023-05-14T08:27:09;18.10;93.00
37281;DHT22;23169;41.804;12.596;2023-05-14T08:29:39;18.40;86.60
37281;DHT22;23169;41.804;12.596;2023-05-14T08:32:08;18.50;81.00
37281;DHT22;23169;41.804;12.596;2023-05-14T08:34:37;18.70;75.50
37281;DHT22;23169;41.804;12.596;2023-05-14T08:37:06;18.90;68.70
37281;DHT22;23169;41.804;12.596;2023-05-14T08:39:36;19.10;67.90
37281;DHT22;23169;41.804;12.596;2023-05-14T08:42:10;19.40;63.30
37281;DHT22;23169;41.804;12.596;2023-05-14T08:44:56;19.50;52.10
37281;DHT22;23169;41.804;12.596;2023-05-14T08:47:26;19.50;46.20
37281;DHT22;23169;41.804;12.596;2023-05-14T08:50:02;19.40;47.90
37281;DHT22;23169;41.804;12.596;2023-05-14T08:52:34;19.50;43.30
37281;DHT22;23169;41.804;12.596;2023-05-14T08:55:06;19.00;46.20
37281;DHT22;23169;41.804;12.596;2023-05-14T08:57:35;18.80;44.80
37281;DHT22;23169;41.804;12.596;2023-05-14T09:00:04;18.70;45.00
37281;DHT22;23169;41.804;12.596;2023-05-14T09:02:39;18.70;46.10
37281;DHT22;23169;41.804;12.596;2023-05-14T09:05:09;18.80;47.50
37281;DHT22;23169;41.804;12.596;2023-05-14T09:07:38;19.00;47.80
37281;DHT22;23169;41.804;12.596;2023-05-14T09:10:07;19.10;46.10
37281;DHT22;23169;41.804;12.596;2023-05-14T09:12:36;19.20;44.50
37281;DHT22;23169;41.804;12.596;2023-05-14T09:15:06;19.20;40.80
37281;DHT22;23169;41.804;12.596;2023-05-14T09:17:35;19.20;40.30
37281;DHT22;23169;41.804;12.596;2023-05-14T09:20:05;19.10;39.20
37281;DHT22;23169;41.804;12.596;2023-05-14T09:22:34;19.10;38.50
37281;DHT22;23169;41.804;12.596;2023-05-14T09:25:09;19.20;37.70
37281;DHT22;23169;41.804;12.596;2023-05-14T09:27:40;19.30;34.00
37281;DHT22;23169;41.804;12.596;2023-05-14T09:30:10;19.20;32.90
37281;DHT22;23169;41.804;12.596;2023-05-14T09:32:41;19.10;34.60
37281;DHT22;23169;41.804;12.596;2023-05-14T09:35:17;19.00;35.00
37281;DHT22;23169;41.804;12.596;2023-05-14T09:37:49;19.00;36.60
37281;DHT22;23169;41.804;12.596;2023-05-14T09:40:21;19.10;29.10
37281;DHT22;23169;41.804;12.596;2023-05-14T09:42:51;19.00;38.00
37281;DHT22;23169;41.804;12.596;2023-05-14T09:45:19;19.20;35.00
37281;DHT22;23169;41.804;12.596;2023-05-14T09:47:48;19.40;35.80
37281;DHT22;23169;41.804;12.596;2023-05-14T09:50:16;19.60;32.80
37281;DHT22;23169;41.804;12.596;2023-05-14T09:52:45;19.70;29.30
37281;DHT22;23169;41.804;12.596;2023-05-14T09:55:15;19.70;29.30
37281;DHT22;23169;41.804;12.596;2023-05-14T09:57:44;19.80;30.80
37281;DHT22;23169;41.804;12.596;2023-05-14T10:00:14;19.80;27.80
37281;DHT22;23169;41.804;12.596;2023-05-14T10:02:44;19.80;27.40
37281;DHT22;23169;41.804;12.596;2023-05-14T10:05:14;19.70;27.80
37281;DHT22;23169;41.804;12.596;2023-05-14T10:07:47;19.80;23.70
37281;DHT22;23169;41.804;12.596;2023-05-14T10:10:20;19.70;12.40
37281;DHT22;23169;41.804;12.596;2023-05-14T10:12:56;19.70;9.50
37281;DHT22;23169;41.804;12.596;2023-05-14T10:15:47;19.70;11.40
37281;DHT22;23169;41.804;12.596;2023-05-14T10:18:18;19.80;10.90
37281;DHT22;23169;41.804;12.596;2023-05-14T10:20:59;19.90;10.50
37281;DHT22;23169;41.804;12.596;2023-05-14T10:23:36;19.60;5.50
37281;DHT22;23169;41.804;12.596;2023-05-14T10:26:07;19.60;8.60
37281;DHT22;23169;41.804;12.596;2023-05-14T10:28:36;19.80;5.80
37281;DHT22;23169;41.804;12.596;2023-05-14T10:31:08;20.00;1.90
37281;DHT22;23169;41.804;12.596;2023-05-14T10:33:49;20.10;1.30
37281;DHT22;23169;41.804;12.596;2023-05-14T10:36:19;20.30;1.00
37281;DHT22;23169;41.804;12.596;2023-05-14T10:38:54;20.40;1.00
37281;DHT22;23169;41.804;12.596;2023-05-14T10:41:24;20.40;1.00
37281;DHT22;23169;41.804;12.596;2023-05-14T10:43:56;20.10;1.00
37281;DHT22;23169;41.804;12.596;2023-05-14T10:46:25;20.10;1.00
37281;DHT22;23169;41.804;12.596;2023-05-14T10:48:53;19.60;1.00
37281;DHT22;23169;41.804;12.596;2023-05-14T10:51:22;20.30;1.00
37281;DHT22;23169;41.804;12.596;2023-05-14T10:53:51;20.30;1.00
37281;DHT22;23169;41.804;12.596;2023-05-14T10:56:20;20.40;1.00
37281;DHT22;23169;41.804;12.596;2023-05-14T10:58:49;20.10;1.00
37281;DHT22;23169;41.804;12.596;2023-05-14T11:01:17;20.00;1.00
37281;DHT22;23169;41.804;12.596;2023-05-14T11:03:52;20.00;1.00
37281;DHT22;23169;41.804;12.596;2023-05-14T11:06:21;20.10;1.00
37281;DHT22;23169;41.804;12.596;2023-05-14T11:08:50;20.50;1.00
37281;DHT22;23169;41.804;12.596;2023-05-14T11:11:21;20.70;1.00
37281;DHT22;23169;41.804;12.596;2023-05-14T11:13:52;20.80;1.00
37281;DHT22;23169;41.804;12.596;2023-05-14T11:16:21;20.70;1.00
37281;DHT22;23169;41.804;12.596;2023-05-14T11:19:02;20.70;1.00
37281;DHT22;23169;41.804;12.596;2023-05-14T11:21:31;20.70;1.00
37281;DHT22;23169;41.804;12.596;2023-05-14T11:24:00;20.90;1.00
37281;DHT22;23169;41.804;12.596;2023-05-14T11:26:30;21.10;1.00
37281;DHT22;23169;41.804;12.596;2023-05-14T11:28:59;21.20;1.00
37281;DHT22;23169;41.804;12.596;2023-05-14T11:31:29;21.50;1.00
37281;DHT22;23169;41.804;12.596;2023-05-14T11:33:57;21.70;1.00
37281;DHT22;23169;41.804;12.596;2023-05-14T11:36:27;22.00;1.00
37281;DHT22;23169;41.804;12.596;2023-05-14T11:38:55;22.00;1.00
37281;DHT22;23169;41.804;12.596;2023-05-14T11:41:24;21.90;1.00
37281;DHT22;23169;41.804;12.596;2023-05-14T11:43:55;21.30;1.00
37281;DHT22;23169;41.804;12.596;2023-05-14T11:46:24;20.90;1.00
37281;DHT22;23169;41.804;12.596;2023-05-14T11:51:23;20.40;1.00
37281;DHT22;23169;41.804;12.596;2023-05-14T11:53:53;20.40;1.00
37281;DHT22;23169;41.804;12.596;2023-05-14T11:56:21;21.30;1.00
37281;DHT22;23169;41.804;12.596;2023-05-14T11:58:55;22.10;1.00
37281;DHT22;23169;41.804;12.596;2023-05-14T12:01:24;22.40;1.00
37281;DHT22;23169;41.804;12.596;2023-05-14T12:03:53;22.70;1.00
37281;DHT22;23169;41.804;12.596;2023-05-14T12:06:29;22.40;1.00
37281;DHT22;23169;41.804;12.596;2023-05-14T12:08:58;22.10;1.00
37281;DHT22;23169;41.804;12.596;2023-05-14T12:11:30;22.20;1.00
37281;DHT22;23169;41.804;12.596;2023-05-14T12:14:00;21.70;1.00
37281;DHT22;23169;41.804;12.596;2023-05-14T12:16:30;21.00;1.00
37281;DHT22;23169;41.804;12.596;2023-05-14T12:19:00;20.30;1.00
37281;DHT22;23169;41.804;12.596;2023-05-14T12:21:29;20.00;1.00
37281;DHT22;23169;41.804;12.596;2023-05-14T12:23:59;20.00;1.00
37281;DHT22;23169;41.804;12.596;2023-05-14T12:26:34;20.20;1.00
37281;DHT22;23169;41.804;12.596;2023-05-14T12:29:03;20.60;1.00
37281;DHT22;23169;41.804;12.596;2023-05-14T12:31:34;20.30;1.00
37281;DHT22;23169;41.804;12.596;2023-05-14T12:34:03;20.50;1.00
37281;DHT22;23169;41.804;12.596;2023-05-14T12:36:33;20.70;1.00
37281;DHT22;23169;41.804;12.596;2023-05-14T12:39:02;20.80;1.00
37281;DHT22;23169;41.804;12.596;2023-05-14T12:41:36;21.40;1.00
37281;DHT22;23169;41.804;12.596;2023-05-14T12:44:05;21.80;1.00
37281;DHT22;23169;41.804;12.596;2023-05-14T12:46:36;22.10;1.00
37281;DHT22;23169;41.804;12.596;2023-05-14T12:49:06;22.90;1.00
37281;DHT22;23169;41.804;12.596;2023-05-14T12:51:35;23.50;1.00
37281;DHT22;23169;41.804;12.596;2023-05-14T12:54:04;23.70;1.00
37281;DHT22;23169;41.804;12.596;2023-05-14T12:56:33;24.00;1.00
37281;DHT22;23169;41.804;12.596;2023-05-14T12:59:01;23.80;1.00
37281;DHT22;23169;41.804;12.596;2023-05-14T13:01:31;23.80;1.00
37281;DHT22;23169;41.804;12.596;2023-05-14T13:03:59;24.10;1.00
37281;DHT22;23169;41.804;12.596;2023-05-14T13:06:29;23.60;1.00
37281;DHT22;23169;41.804;12.596;2023-05-14T13:09:01;23.30;1.00
37281;DHT22;23169;41.804;12.596;2023-05-14T13:11:32;23.80;1.00
37281;DHT22;23169;41.804;12.596;2023-05-14T13:14:01;24.00;1.00
37281;DHT22;23169;41.804;12.596;2023-05-14T13:16:31;24.40;1.00
37281;DHT22;23169;41.804;12.596;2023-05-14T13:19:00;24.30;1.00
37281;DHT22;23169;41.804;12.596;2023-05-14T13:21:29;24.30;1.00
37281;DHT22;23169;41.804;12.596;2023-05-14T13:23:58;24.30;1.00
37281;DHT22;23169;41.804;12.596;2023-05-14T13:26:27;24.40;1.00
37281;DHT22;23169;41.804;12.596;2023-05-14T13:28:55;24.80;1.00
37281;DHT22;23169;41.804;12.596;2023-05-14T13:31:24;24.80;1.00
37281;DHT22;23169;41.804;12.596;2023-05-14T13:33:52;25.50;1.00
37281;DHT22;23169;41.804;12.596;2023-05-14T13:36:22;26.20;1.00
37281;DHT22;23169;41.804;12.596;2023-05-14T13:38:50;26.30;1.00
37281;DHT22;23169;41.804;12.596;2023-05-14T13:41:20;26.40;1.00
37281;DHT22;23169;41.804;12.596;2023-05-14T13:43:49;26.70;1.00
37281;DHT22;23169;41.804;12.596;2023-05-14T13:46:18;26.60;1.00
37281;DHT22;23169;41.804;12.596;2023-05-14T13:48:47;27.10;1.00
37281;DHT22;23169;41.804;12.596;2023-05-14T13:51:18;26.90;1.00
37281;DHT22;23169;41.804;12.596;2023-05-14T13:53:48;25.60;1.00
37281;DHT22;23169;41.804;12.596;2023-05-14T13:56:16;25.20;1.00
37281;DHT22;23169;41.804;12.596;2023-05-14T13:58:45;25.30;1.00
37281;DHT22;23169;41.804;12.596;2023-05-14T14:01:13;25.10;1.00
37281;DHT22;23169;41.804;12.596;2023-05-14T14:03:42;24.60;1.00
37281;DHT22;23169;41.804;12.596;2023-05-14T14:06:11;24.00;1.00
37281;DHT22;23169;41.804;12.596;2023-05-14T14:11:12;23.30;1.00
37281;DHT22;23169;41.804;12.596;2023-05-14T14:13:41;22.90;1.00
37281;DHT22;23169;41.804;12.596;2023-05-14T14:16:09;22.90;1.00
37281;DHT22;23169;41.804;12.596;2023-05-14T14:18:38;23.50;1.00
37281;DHT22;23169;41.804;12.596;2023-05-14T14:21:07;23.10;1.00
37281;DHT22;23169;41.804;12.596;2023-05-14T14:23:36;23.20;1.00
37281;DHT22;23169;41.804;12.596;2023-05-14T14:26:04;22.80;1.00
37281;DHT22;23169;41.804;12.596;2023-05-14T14:28:34;22.80;1.00
37281;DHT22;23169;41.804;12.596;2023-05-14T14:31:03;23.20;1.00
37281;DHT22;23169;41.804;12.596;2023-05-14T14:33:32;23.90;1.00
37281;DHT22;23169;41.804;12.596;2023-05-14T14:36:02;23.30;1.00
37281;DHT22;23169;41.804;12.596;2023-05-14T14:38:31;24.50;1.00
37281;DHT22;23169;41.804;12.596;2023-05-14T14:41:00;25.40;1.00
37281;DHT22;23169;41.804;12.596;2023-05-14T14:43:33;26.00;1.00
37281;DHT22;23169;41.804;12.596;2023-05-14T14:46:01;24.60;1.00
37281;DHT22;23169;41.804;12.596;2023-05-14T14:48:34;25.80;1.00
37281;DHT22;23169;41.804;12.596;2023-05-14T14:51:07;25.90;1.00
37281;DHT22;23169;41.804;12.596;2023-05-14T14:53:36;25.50;1.00
37281;DHT22;23169;41.804;12.596;2023-05-14T14:56:05;25.30;1.00
37281;DHT22;23169;41.804;12.596;2023-05-14T14:58:34;25.60;1.00
37281;DHT22;23169;41.804;12.596;2023-05-14T15:01:03;26.00;1.00
37281;DHT22;23169;41.804;12.596;2023-05-14T15:03:33;26.70;1.00
37281;DHT22;23169;41.804;12.596;2023-05-14T15:06:04;26.80;1.00
37281;DHT22;23169;41.804;12.596;2023-05-14T15:08:36;26.80;1.00
37281;DHT22;23169;41.804;12.596;2023-05-14T15:11:05;26.30;1.00
37281;DHT22;23169;41.804;12.596;2023-05-14T15:13:34;26.10;1.00
37281;DHT22;23169;41.804;12.596;2023-05-14T15:16:03;25.90;1.00
37281;DHT22;23169;41.804;12.596;2023-05-14T15:18:33;25.90;1.00
37281;DHT22;23169;41.804;12.596;2023-05-14T15:21:02;25.40;1.00
37281;DHT22;23169;41.804;12.596;2023-05-14T15:23:32;25.50;1.00
37281;DHT22;23169;41.804;12.596;2023-05-14T15:26:01;25.10;1.00
37281;DHT22;23169;41.804;12.596;2023-05-14T15:28:31;24.70;1.00
37281;DHT22;23169;41.804;12.596;2023-05-14T15:31:00;25.10;1.00
37281;DHT22;23169;41.804;12.596;2023-05-14T15:36:01;24.80;1.00
37281;DHT22;23169;41.804;12.596;2023-05-14T15:38:31;24.60;1.00
37281;DHT22;23169;41.804;12.596;2023-05-14T15:41:03;24.70;1.00
37281;DHT22;23169;41.804;12.596;2023-05-14T15:43:33;25.10;1.00
37281;DHT22;23169;41.804;12.596;2023-05-14T15:46:02;24.70;1.00
37281;DHT22;23169;41.804;12.596;2023-05-14T15:48:32;24.60;1.00
37281;DHT22;23169;41.804;12.596;2023-05-14T15:51:01;24.00;1.00
37281;DHT22;23169;41.804;12.596;2023-05-14T15:53:30;23.00;1.00
37281;DHT22;23169;41.804;12.596;2023-05-14T15:58:30;22.60;1.00
37281;DHT22;23169;41.804;12.596;2023-05-14T16:00:59;22.30;1.00
37281;DHT22;23169;41.804;12.596;2023-05-14T16:03:30;22.30;1.00
37281;DHT22;23169;41.804;12.596;2023-05-14T16:05:58;22.20;1.00
37281;DHT22;23169;41.804;12.596;2023-05-14T16:08:28;21.90;1.00
37281;DHT22;23169;41.804;12.596;2023-05-14T16:10:57;21.50;1.00
37281;DHT22;23169;41.804;12.596;2023-05-14T16:13:26;20.90;1.00
37281;DHT22;23169;41.804;12.596;2023-05-14T16:15:54;20.70;1.00
37281;DHT22;23169;41.804;12.596;2023-05-14T16:18:23;20.60;1.00
37281;DHT22;23169;41.804;12.596;2023-05-14T16:20:53;20.50;1.00
37281;DHT22;23169;41.804;12.596;2023-05-14T16:23:22;20.20;1.00
37281;DHT22;23169;41.804;12.596;2023-05-14T16:25:50;20.00;1.00
37281;DHT22;23169;41.804;12.596;2023-05-14T16:28:19;19.70;1.00
37281;DHT22;23169;41.804;12.596;2023-05-14T16:30:47;19.60;1.00
37281;DHT22;23169;41.804;12.596;2023-05-14T16:33:16;19.50;1.00
37281;DHT22;23169;41.804;12.596;2023-05-14T16:35:45;19.30;1.00
37281;DHT22;23169;41.804;12.596;2023-05-14T16:38:14;19.20;1.00
37281;DHT22;23169;41.804;12.596;2023-05-14T16:40:43;19.00;1.00
37281;DHT22;23169;41.804;12.596;2023-05-14T16:43:13;18.90;1.00
37281;DHT22;23169;41.804;12.596;2023-05-14T16:45:42;19.00;1.00
37281;DHT22;23169;41.804;12.596;2023-05-14T16:48:14;19.00;1.00
37281;DHT22;23169;41.804;12.596;2023-05-14T16:50:43;19.10;1.00
37281;DHT22;23169;41.804;12.596;2023-05-14T16:53:12;19.20;1.00
37281;DHT22;23169;41.804;12.596;2023-05-14T16:55:41;19.30;1.00
37281;DHT22;23169;41.804;12.596;2023-05-14T16:58:10;19.30;1.00
37281;DHT22;23169;41.804;12.596;2023-05-14T17:00:39;19.30;1.00
37281;DHT22;23169;41.804;12.596;2023-05-14T17:03:08;19.40;1.00
37281;DHT22;23169;41.804;12.596;2023-05-14T17:05:37;19.40;1.00
37281;DHT22;23169;41.804;12.596;2023-05-14T17:08:06;19.40;1.00
37281;DHT22;23169;41.804;12.596;2023-05-14T17:10:34;19.40;1.00
37281;DHT22;23169;41.804;12.596;2023-05-14T17:13:03;19.30;1.00
37281;DHT22;23169;41.804;12.596;2023-05-14T17:15:34;19.20;1.00
37281;DHT22;23169;41.804;12.596;2023-05-14T17:18:03;18.90;1.00
37281;DHT22;23169;41.804;12.596;2023-05-14T17:20:32;18.80;1.00
37281;DHT22;23169;41.804;12.596;2023-05-14T17:23:01;18.70;1.00
37281;DHT22;23169;41.804;12.596;2023-05-14T17:25:30;18.50;1.00
37281;DHT22;23169;41.804;12.596;2023-05-14T17:28:00;18.30;1.00
37281;DHT22;23169;41.804;12.596;2023-05-14T17:30:32;18.30;1.00
37281;DHT22;23169;41.804;12.596;2023-05-14T17:33:01;18.20;1.00
37281;DHT22;23169;41.804;12.596;2023-05-14T17:35:31;18.10;1.00
37281;DHT22;23169;41.804;12.596;2023-05-14T17:38:03;18.00;1.00
37281;DHT22;23169;41.804;12.596;2023-05-14T17:40:33;17.90;1.00
37281;DHT22;23169;41.804;12.596;2023-05-14T17:43:01;17.90;1.00
37281;DHT22;23169;41.804;12.596;2023-05-14T17:45:31;17.80;1.00
37281;DHT22;23169;41.804;12.596;2023-05-14T17:48:00;17.70;1.00
37281;DHT22;23169;41.804;12.596;2023-05-14T17:50:29;17.70;1.00
37281;DHT22;23169;41.804;12.596;2023-05-14T17:52:57;17.70;1.00
37281;DHT22;23169;41.804;12.596;2023-05-14T17:55:26;17.60;1.00
37281;DHT22;23169;41.804;12.596;2023-05-14T17:57:55;17.50;1.00
37281;DHT22;23169;41.804;12.596;2023-05-14T18:00:23;17.50;1.00
37281;DHT22;23169;41.804;12.596;2023-05-14T18:02:52;17.50;1.00
37281;DHT22;23169;41.804;12.596;2023-05-14T18:05:20;17.50;1.00
37281;DHT22;23169;41.804;12.596;2023-05-14T18:07:49;17.50;1.00
37281;DHT22;23169;41.804;12.596;2023-05-14T18:10:17;17.50;1.00
37281;DHT22;23169;41.804;12.596;2023-05-14T18:12:46;17.40;1.00
37281;DHT22;23169;41.804;12.596;2023-05-14T18:15:14;17.40;1.00
37281;DHT22;23169;41.804;12.596;2023-05-14T18:17:44;17.40;1.00
37281;DHT22;23169;41.804;12.596;2023-05-14T18:20:12;17.40;1.00
37281;DHT22;23169;41.804;12.596;2023-05-14T18:22:41;17.30;1.00
37281;DHT22;23169;41.804;12.596;2023-05-14T18:25:12;17.30;1.00
37281;DHT22;23169;41.804;12.596;2023-05-14T18:27:41;17.20;1.00
37281;DHT22;23169;41.804;12.596;2023-05-14T18:30:12;17.20;1.00
37281;DHT22;23169;41.804;12.596;2023-05-14T18:32:43;17.20;1.00
37281;DHT22;23169;41.804;12.596;2023-05-14T18:35:15;17.10;1.00
37281;DHT22;23169;41.804;12.596;2023-05-14T18:37:44;17.00;1.00
37281;DHT22;23169;41.804;12.596;2023-05-14T18:40:14;16.90;1.00
37281;DHT22;23169;41.804;12.596;2023-05-14T18:42:43;16.70;1.00
37281;DHT22;23169;41.804;12.596;2023-05-14T18:45:11;16.70;1.00
37281;DHT22;23169;41.804;12.596;2023-05-14T18:47:41;16.60;1.00
37281;DHT22;23169;41.804;12.596;2023-05-14T18:50:09;16.50;1.00
37281;DHT22;23169;41.804;12.596;2023-05-14T18:52:38;16.40;1.00
37281;DHT22;23169;41.804;12.596;2023-05-14T18:55:07;16.40;1.00
37281;DHT22;23169;41.804;12.596;2023-05-14T18:57:36;16.20;1.00
37281;DHT22;23169;41.804;12.596;2023-05-14T19:00:05;16.20;1.00
37281;DHT22;23169;41.804;12.596;2023-05-14T19:02:34;16.20;1.00
37281;DHT22;23169;41.804;12.596;2023-05-14T19:05:03;16.10;1.00
37281;DHT22;23169;41.804;12.596;2023-05-14T19:07:32;16.00;1.70
37281;DHT22;23169;41.804;12.596;2023-05-14T19:10:00;15.90;3.20
37281;DHT22;23169;41.804;12.596;2023-05-14T19:12:30;15.90;4.80
37281;DHT22;23169;41.804;12.596;2023-05-14T19:14:59;15.90;6.90
37281;DHT22;23169;41.804;12.596;2023-05-14T19:17:28;15.80;8.00
37281;DHT22;23169;41.804;12.596;2023-05-14T19:19:56;15.80;8.40
37281;DHT22;23169;41.804;12.596;2023-05-14T19:22:25;15.80;9.10
37281;DHT22;23169;41.804;12.596;2023-05-14T19:24:54;15.80;10.00
37281;DHT22;23169;41.804;12.596;2023-05-14T19:27:23;15.80;10.20
37281;DHT22;23169;41.804;12.596;2023-05-14T19:29:52;15.80;10.50
37281;DHT22;23169;41.804;12.596;2023-05-14T19:32:20;15.80;10.80
37281;DHT22;23169;41.804;12.596;2023-05-14T19:34:49;15.80;11.00
37281;DHT22;23169;41.804;12.596;2023-05-14T19:37:18;15.80;11.50
37281;DHT22;23169;41.804;12.596;2023-05-14T19:39:47;15.80;11.80
37281;DHT22;23169;41.804;12.596;2023-05-14T19:42:16;15.80;11.50
37281;DHT22;23169;41.804;12.596;2023-05-14T19:44:47;15.80;11.80
37281;DHT22;23169;41.804;12.596;2023-05-14T19:47:15;15.80;11.60
37281;DHT22;23169;41.804;12.596;2023-05-14T19:49:46;15.80;11.60
37281;DHT22;23169;41.804;12.596;2023-05-14T19:52:15;15.80;11.40
37281;DHT22;23169;41.804;12.596;2023-05-14T19:54:43;15.80;12.00
37281;DHT22;23169;41.804;12.596;2023-05-14T19:57:12;16.10;26.70
37281;DHT22;23169;41.804;12.596;2023-05-14T19:59:40;17.00;14.90
37281;DHT22;23169;41.804;12.596;2023-05-14T20:02:09;15.70;15.40
37281;DHT22;23169;41.804;12.596;2023-05-14T20:04:40;15.70;15.40
37281;DHT22;23169;41.804;12.596;2023-05-14T20:07:09;15.70;16.10
37281;DHT22;23169;41.804;12.596;2023-05-14T20:09:39;15.70;15.90